createdAt,value
2019-01-12T00:02:10.255Z,101026.00
2019-01-12T00:04:38.482Z,101045.00
2019-01-12T00:07:20.995Z,101028.00
2019-01-12T00:10:08.799Z,101036.00
2019-01-12T00:12:49.995Z,101028.00
2019-01-12T00:15:38.318Z,101033.00
2019-01-12T00:18:18.956Z,101041.00
2019-01-12T00:21:06.457Z,100786.00
2019-01-12T00:23:47.450Z,101099.00
2019-01-12T00:26:34.978Z,100836.00
2019-01-12T00:29:16.017Z,100807.00
2019-01-12T00:32:03.677Z,100984.00
2019-01-12T00:34:32.768Z,101016.00
2019-01-12T00:37:00.898Z,101007.00
2019-01-12T00:39:42.017Z,101016.00
2019-01-12T00:42:10.034Z,101023.00
2019-01-12T00:44:52.072Z,101028.00
2019-01-12T00:47:20.106Z,101035.00
2019-01-12T00:50:06.150Z,101030.00
2019-01-12T00:52:34.155Z,100993.00
2019-01-12T00:55:14.375Z,101027.00
2019-01-12T00:58:01.872Z,101075.00
2019-01-12T01:00:42.253Z,100852.00
2019-01-12T01:03:22.415Z,100865.00
2019-01-12T01:05:50.482Z,101033.00
2019-01-12T01:08:32.850Z,101042.00
2019-01-12T01:11:00.817Z,101044.00
2019-01-12T01:13:41.256Z,101142.00
2019-01-12T01:16:09.316Z,101037.00
2019-01-12T01:18:49.755Z,100759.00
2019-01-12T01:21:17.791Z,101047.00
2019-01-12T01:23:46.023Z,101045.00
2019-01-12T01:26:33.754Z,101050.00
2019-01-12T01:29:14.335Z,101055.00
2019-01-12T01:31:42.529Z,101051.00
2019-01-12T01:34:24.514Z,101054.00
2019-01-12T01:36:52.508Z,101062.00
2019-01-12T01:39:20.450Z,101048.00
2019-01-12T01:42:01.208Z,101056.00
2019-01-12T01:44:48.655Z,101063.00
2019-01-12T01:47:29.401Z,101064.00
2019-01-12T01:50:17.288Z,101069.00
2019-01-12T01:52:58.006Z,100822.00
2019-01-12T01:55:45.681Z,101065.00
2019-01-12T01:58:13.663Z,101063.00
2019-01-12T02:00:41.778Z,101051.00
2019-01-12T02:03:09.754Z,101057.00
2019-01-12T02:05:57.378Z,101064.00
2019-01-12T02:08:38.046Z,100975.00
2019-01-12T02:11:25.524Z,101057.00
2019-01-12T02:14:06.104Z,101064.00
2019-01-12T02:16:53.767Z,100947.00
2019-01-12T02:19:34.198Z,101061.00
2019-01-12T02:22:21.872Z,101157.00
2019-01-12T02:25:02.489Z,100847.00
2019-01-12T02:27:30.433Z,101049.00
2019-01-12T02:29:58.359Z,101052.00
2019-01-12T02:32:46.096Z,101075.00
2019-01-12T02:35:14.139Z,101041.00
2019-01-12T02:37:42.086Z,101048.00
2019-01-12T02:40:11.023Z,101055.00
2019-01-12T02:42:39.226Z,101054.00
2019-01-12T02:45:07.859Z,101045.00
2019-01-12T02:47:35.914Z,101037.00
2019-01-12T02:50:17.696Z,101051.00
2019-01-12T02:52:57.816Z,100792.00
2019-01-12T02:55:45.246Z,101048.00
2019-01-12T02:58:13.265Z,101052.00
2019-01-12T03:00:41.362Z,101043.00
2019-01-12T03:03:22.065Z,101044.00
2019-01-12T03:06:09.483Z,100921.00
2019-01-12T03:08:39.592Z,101053.00
2019-01-12T03:11:07.578Z,101046.00
2019-01-12T03:13:35.456Z,101045.00
2019-01-12T03:16:03.996Z,101047.00
2019-01-12T03:18:31.894Z,101040.00
2019-01-12T03:21:19.483Z,100937.00
2019-01-12T03:24:00.197Z,100931.00
2019-01-12T03:26:28.065Z,101043.00
2019-01-12T03:28:55.953Z,101047.00
2019-01-12T03:31:23.860Z,101046.00
2019-01-12T03:33:52.885Z,101030.00
2019-01-12T03:36:20.875Z,101040.00
2019-01-12T03:39:01.199Z,101034.00
2019-01-12T03:41:29.062Z,101035.00
2019-01-12T03:44:16.649Z,100822.00
2019-01-12T03:46:57.437Z,101042.00
2019-01-12T03:49:25.299Z,101047.00
2019-01-12T03:51:53.296Z,101043.00
2019-01-12T03:54:40.712Z,100857.00
2019-01-12T03:57:21.152Z,101033.00
2019-01-12T04:00:15.289Z,101037.00
2019-01-12T04:02:56.360Z,101027.00
2019-01-12T04:05:43.891Z,101035.00
2019-01-12T04:08:24.473Z,101031.00
2019-01-12T04:11:12.018Z,101025.00
2019-01-12T04:13:52.571Z,100836.00
2019-01-12T04:16:39.977Z,101014.00
2019-01-12T04:19:20.710Z,101016.00
2019-01-12T04:22:08.220Z,100997.00
2019-01-12T04:24:48.698Z,100815.00
2019-01-12T04:27:16.630Z,101006.00
2019-01-12T04:29:44.548Z,100997.00
2019-01-12T04:32:12.492Z,101009.00
2019-01-12T04:34:54.470Z,100995.00
2019-01-12T04:37:45.337Z,101016.00
2019-01-12T04:40:25.856Z,100917.00
2019-01-12T04:43:05.848Z,101003.00
2019-01-12T04:45:33.843Z,101004.00
2019-01-12T04:48:21.293Z,100812.00
2019-01-12T04:50:49.891Z,100998.00
2019-01-12T04:53:17.863Z,101002.00
2019-01-12T04:56:00.466Z,101007.00
2019-01-12T04:58:28.375Z,100998.00
2019-01-12T05:00:56.448Z,101006.00
2019-01-12T05:03:24.493Z,101003.00
2019-01-12T05:05:52.546Z,101007.00
2019-01-12T05:08:20.625Z,100998.00
2019-01-12T05:10:49.547Z,100995.00
2019-01-12T05:13:17.488Z,100987.00
2019-01-12T05:16:00.393Z,100991.00
2019-01-12T05:18:28.343Z,100995.00
2019-01-12T05:21:15.985Z,100997.00
2019-01-12T05:23:56.627Z,100997.00
2019-01-12T05:26:44.049Z,101004.00
2019-01-12T05:29:24.531Z,101002.00
2019-01-12T05:32:11.995Z,100785.00
2019-01-12T05:34:53.205Z,101005.00
2019-01-12T05:37:40.691Z,100795.00
2019-01-12T05:40:08.958Z,100993.00
2019-01-12T05:42:36.874Z,100998.00
2019-01-12T05:45:05.415Z,101001.00
2019-01-12T05:47:53.756Z,100999.00
2019-01-12T05:50:21.975Z,100994.00
2019-01-12T05:53:09.412Z,101002.00
2019-01-12T05:55:57.019Z,101006.00
2019-01-12T05:58:39.939Z,101000.00
2019-01-12T06:01:21.051Z,100760.00
2019-01-12T06:04:08.414Z,101013.00
2019-01-12T06:06:36.337Z,101013.00
2019-01-12T06:09:24.001Z,101011.00
2019-01-12T06:12:04.900Z,101021.00
2019-01-12T06:14:52.329Z,101075.00
2019-01-12T06:17:34.755Z,100953.00
2019-01-12T06:20:22.180Z,101022.00
2019-01-12T06:23:02.662Z,100949.00
2019-01-12T06:25:30.614Z,101017.00
2019-01-12T06:27:58.669Z,101009.00
2019-01-12T06:30:26.621Z,101011.00
2019-01-12T06:33:06.781Z,100793.00
2019-01-12T06:35:54.623Z,101025.00
2019-01-12T06:38:35.599Z,101017.00
2019-01-12T06:41:03.476Z,101016.00
2019-01-12T06:43:43.775Z,101016.00
2019-01-12T06:46:31.310Z,101015.00
2019-01-12T06:49:11.813Z,101017.00
2019-01-12T06:51:52.171Z,100935.00
2019-01-12T06:54:39.619Z,101014.00
2019-01-12T06:57:20.601Z,101015.00
2019-01-12T07:00:11.285Z,100815.00
2019-01-12T07:02:52.063Z,100819.00
2019-01-12T07:05:20.103Z,101012.00
2019-01-12T07:08:01.164Z,101028.00
2019-01-12T07:10:29.986Z,101016.00
2019-01-12T07:13:10.259Z,101023.00
2019-01-12T07:15:50.357Z,100994.00
2019-01-12T07:18:18.352Z,101019.00
2019-01-12T07:20:46.250Z,101019.00
2019-01-12T07:23:26.551Z,101008.00
2019-01-12T07:26:17.624Z,101063.00
2019-01-12T07:28:50.186Z,101026.00
2019-01-12T07:31:37.551Z,100823.00
2019-01-12T07:34:18.536Z,101016.00
2019-01-12T07:37:06.020Z,100787.00
2019-01-12T07:39:33.982Z,101019.00
2019-01-12T07:42:22.158Z,101014.00
2019-01-12T07:44:50.120Z,101026.00
2019-01-12T07:47:18.063Z,101021.00
2019-01-12T07:49:46.086Z,101027.00
2019-01-12T07:52:14.103Z,101030.00
2019-01-12T07:54:42.070Z,101020.00
2019-01-12T07:57:10.152Z,101020.00
2019-01-12T07:59:38.357Z,101033.00
2019-01-12T08:02:27.796Z,101017.00
2019-01-12T08:05:10.341Z,101112.00
2019-01-12T08:07:57.777Z,101030.00
2019-01-12T08:10:42.191Z,100943.00
2019-01-12T08:13:29.793Z,100804.00
2019-01-12T08:15:57.730Z,101018.00
2019-01-12T08:18:47.091Z,100858.00
2019-01-12T08:21:27.891Z,100794.00
2019-01-12T08:24:15.327Z,101117.00
2019-01-12T08:26:55.735Z,101008.00
2019-01-12T08:29:43.288Z,100865.00
2019-01-12T08:32:11.285Z,101006.00
2019-01-12T08:34:39.325Z,101004.00
2019-01-12T08:37:07.427Z,100998.00
2019-01-12T08:39:47.956Z,101006.00
2019-01-12T08:42:35.524Z,101054.00
2019-01-12T08:45:15.945Z,101000.00
2019-01-12T08:47:56.955Z,100985.00
2019-01-12T08:50:44.394Z,100812.00
2019-01-12T08:53:25.427Z,100997.00
2019-01-12T08:56:13.192Z,101002.00
2019-01-12T08:58:54.890Z,101004.00
2019-01-12T09:01:42.397Z,100873.00
2019-01-12T09:04:23.259Z,100993.00
2019-01-12T09:06:52.273Z,100987.00
2019-01-12T09:09:33.108Z,100748.00
2019-01-12T09:12:01.110Z,100984.00
2019-01-12T09:14:42.300Z,100818.00
2019-01-12T09:17:10.323Z,100982.00
2019-01-12T09:19:38.603Z,100978.00
2019-01-12T09:22:07.969Z,100972.00
2019-01-12T09:24:36.633Z,100977.00
2019-01-12T09:27:04.753Z,100965.00
2019-01-12T09:29:47.166Z,100812.00
2019-01-12T09:32:20.729Z,100959.00
2019-01-12T09:35:01.086Z,100958.00
2019-01-12T09:37:29.332Z,100949.00
2019-01-12T09:40:10.722Z,100945.00
2019-01-12T09:42:58.679Z,100947.00
2019-01-12T09:45:39.856Z,100944.00
2019-01-12T09:48:27.682Z,100726.00
2019-01-12T09:50:55.661Z,100950.00
2019-01-12T09:53:24.844Z,100949.00
2019-01-12T09:56:12.281Z,100822.00
2019-01-12T09:59:05.137Z,100950.00
2019-01-12T10:01:33.466Z,100933.00
2019-01-12T10:04:17.481Z,100990.00
2019-01-12T10:06:45.832Z,100917.00
2019-01-12T10:09:14.297Z,100918.00
2019-01-12T10:11:43.199Z,100918.00
2019-01-12T10:14:12.469Z,100922.00
2019-01-12T10:16:41.083Z,100921.00
2019-01-12T10:19:09.425Z,100929.00
2019-01-12T10:21:37.464Z,100934.00
2019-01-12T10:24:05.537Z,100938.00
2019-01-12T10:26:33.513Z,100910.00
2019-01-12T10:29:15.898Z,100896.00
2019-01-12T10:32:03.760Z,100663.00
2019-01-12T10:34:45.608Z,100890.00
2019-01-12T10:37:33.326Z,100870.00
2019-01-12T10:40:03.247Z,100879.00
2019-01-12T10:42:31.744Z,100877.00
2019-01-12T10:44:59.792Z,100868.00
2019-01-12T10:47:47.838Z,100689.00
2019-01-12T10:50:24.599Z,100870.00
2019-01-12T10:53:12.667Z,100868.00
2019-01-12T10:55:53.192Z,100847.00
2019-01-12T10:58:41.385Z,100854.00
2019-01-12T11:01:22.157Z,100605.00
2019-01-12T11:04:03.838Z,100590.00
2019-01-12T11:06:32.139Z,100828.00
2019-01-12T11:09:15.375Z,100815.00
2019-01-12T11:12:03.807Z,100824.00
2019-01-12T11:14:44.561Z,100822.00
2019-01-12T11:17:32.203Z,100649.00
2019-01-12T11:20:13.438Z,100898.00
2019-01-12T11:23:00.843Z,100827.00
2019-01-12T11:25:43.717Z,100803.00
2019-01-12T11:28:31.200Z,100791.00
2019-01-12T11:31:12.431Z,100809.00
2019-01-12T11:34:00.359Z,100792.00
2019-01-12T11:36:28.342Z,100784.00
2019-01-12T11:38:56.527Z,100771.00
2019-01-12T11:41:24.587Z,100754.00
2019-01-12T11:43:52.593Z,100762.00
2019-01-12T11:46:22.846Z,100750.00
2019-01-12T11:49:05.242Z,100744.00
2019-01-12T11:51:45.560Z,100836.00
2019-01-12T11:54:13.536Z,100755.00
2019-01-12T11:56:41.698Z,100764.00
2019-01-12T11:59:09.686Z,100752.00
2019-01-12T12:01:37.772Z,100738.00
2019-01-12T12:04:06.039Z,100746.00
2019-01-12T12:06:35.227Z,100735.00
2019-01-12T12:09:23.610Z,100748.00
2019-01-12T12:12:03.819Z,100730.00
2019-01-12T12:14:31.746Z,100716.00
2019-01-12T12:16:59.915Z,100724.00
2019-01-12T12:19:27.953Z,100732.00
2019-01-12T12:21:55.947Z,100716.00
2019-01-12T12:24:23.934Z,100715.00
2019-01-12T12:26:52.317Z,100699.00
2019-01-12T12:29:39.947Z,100572.00
2019-01-12T12:32:20.355Z,100682.00
2019-01-12T12:35:08.185Z,100772.00
2019-01-12T12:37:36.212Z,100673.00
2019-01-12T12:40:05.820Z,100691.00
2019-01-12T12:42:45.958Z,100602.00
2019-01-12T12:45:20.791Z,100615.00
2019-01-12T12:47:49.684Z,100646.00
2019-01-12T12:50:17.755Z,100637.00
2019-01-12T12:52:45.850Z,100635.00
2019-01-12T12:55:35.186Z,100636.00
2019-01-12T12:58:24.857Z,100628.00
2019-01-12T13:01:12.793Z,100420.00
2019-01-12T13:03:53.916Z,100616.00
2019-01-12T13:06:42.700Z,100616.00
2019-01-12T13:09:10.822Z,100629.00
2019-01-12T13:11:38.910Z,100623.00
2019-01-12T13:14:07.044Z,100617.00
2019-01-12T13:16:35.144Z,100595.00
2019-01-12T13:19:19.478Z,100596.00
2019-01-12T13:21:47.733Z,100592.00
2019-01-12T13:24:28.715Z,100411.00
2019-01-12T13:27:16.269Z,100360.00
2019-01-12T13:29:57.161Z,100415.00
2019-01-12T13:32:38.085Z,100575.00
2019-01-12T13:35:07.007Z,100565.00
2019-01-12T13:37:36.987Z,100555.00
2019-01-12T13:40:26.190Z,100563.00
2019-01-12T13:42:54.555Z,100557.00
2019-01-12T13:45:42.190Z,100351.00
2019-01-12T13:48:23.165Z,100446.00
2019-01-12T13:51:10.883Z,100376.00
2019-01-12T13:53:39.636Z,100521.00
2019-01-12T13:56:07.833Z,100517.00
2019-01-12T13:58:48.440Z,100467.00
2019-01-12T14:01:16.630Z,100516.00
2019-01-12T14:03:44.826Z,100522.00
2019-01-12T14:06:34.894Z,100517.00
2019-01-12T14:09:16.215Z,100509.00
2019-01-12T14:11:44.527Z,100511.00
2019-01-12T14:14:12.688Z,100498.00
2019-01-12T14:16:41.058Z,100499.00
2019-01-12T14:19:23.557Z,100495.00
2019-01-12T14:21:51.773Z,100491.00
2019-01-12T14:24:21.727Z,100472.00
2019-01-12T14:26:50.769Z,100484.00
2019-01-12T14:29:18.960Z,100493.00
2019-01-12T14:31:47.778Z,100471.00
2019-01-12T14:34:28.853Z,100477.00
2019-01-12T14:37:11.016Z,100575.00
2019-01-12T14:39:59.788Z,100245.00
2019-01-12T14:42:41.443Z,100452.00
2019-01-12T14:45:32.882Z,100453.00
2019-01-12T14:48:01.356Z,100451.00
2019-01-12T14:50:49.743Z,100242.00
2019-01-12T14:53:30.757Z,100444.00
2019-01-12T14:56:18.495Z,100286.00
2019-01-12T14:58:59.842Z,100425.00
2019-01-12T15:01:30.598Z,100431.00
2019-01-12T15:03:58.823Z,100427.00
2019-01-12T15:06:27.140Z,100422.00
2019-01-12T15:08:55.367Z,100425.00
2019-01-12T15:11:23.472Z,100420.00
2019-01-12T15:13:51.682Z,100410.00
2019-01-12T15:16:20.345Z,100411.00
2019-01-12T15:19:01.612Z,100407.00
2019-01-12T15:21:29.757Z,100408.00
2019-01-12T15:23:58.306Z,100414.00
2019-01-12T15:26:26.306Z,100407.00
2019-01-12T15:28:54.589Z,100406.00
2019-01-12T15:31:36.101Z,100405.00
2019-01-12T15:34:16.857Z,100218.00
2019-01-12T15:36:44.925Z,100390.00
2019-01-12T15:39:13.000Z,100393.00
2019-01-12T15:41:41.215Z,100393.00
2019-01-12T15:44:21.547Z,100394.00
2019-01-12T15:47:09.103Z,100189.00
2019-01-12T15:49:37.051Z,100372.00
2019-01-12T15:52:18.119Z,100381.00
2019-01-12T15:54:59.317Z,100192.00
2019-01-12T15:57:40.306Z,100389.00
2019-01-12T16:00:29.380Z,100168.00
2019-01-12T16:02:57.711Z,100378.00
2019-01-12T16:05:27.157Z,100382.00
2019-01-12T16:07:56.151Z,100374.00
2019-01-12T16:10:43.953Z,100299.00
2019-01-12T16:13:25.025Z,100423.00
2019-01-12T16:16:12.571Z,100415.00
2019-01-12T16:18:53.033Z,100182.00
2019-01-12T16:21:40.532Z,100196.00
2019-01-12T16:24:21.388Z,100371.00
2019-01-12T16:26:49.494Z,100372.00
2019-01-12T16:29:17.658Z,100369.00
2019-01-12T16:31:45.870Z,100374.00
2019-01-12T16:34:14.116Z,100362.00
2019-01-12T16:37:01.757Z,100347.00
2019-01-12T16:39:42.349Z,100211.00
2019-01-12T16:42:30.074Z,100358.00
2019-01-12T16:44:58.172Z,100351.00
2019-01-12T16:47:26.181Z,100339.00
2019-01-12T16:50:08.266Z,100158.00
2019-01-12T16:52:55.754Z,100339.00
2019-01-12T16:55:36.638Z,100110.00
2019-01-12T16:58:17.010Z,100316.00
2019-01-12T17:00:45.060Z,100313.00
2019-01-12T17:03:26.031Z,100209.00
2019-01-12T17:05:54.352Z,100303.00
2019-01-12T17:08:22.405Z,100285.00
2019-01-12T17:10:50.584Z,100295.00
2019-01-12T17:13:18.840Z,100289.00
2019-01-12T17:15:46.960Z,100291.00
2019-01-12T17:18:15.513Z,100292.00
2019-01-12T17:21:03.016Z,100114.00
2019-01-12T17:23:43.525Z,100160.00
2019-01-12T17:26:31.386Z,100076.00
2019-01-12T17:29:17.684Z,100257.00
2019-01-12T17:31:42.054Z,100257.00
2019-01-12T17:34:24.900Z,100266.00
2019-01-12T17:37:12.735Z,100094.00
2019-01-12T17:39:40.849Z,100245.00
2019-01-12T17:42:09.356Z,100255.00
2019-01-12T17:44:37.451Z,100258.00
2019-01-12T17:47:05.625Z,100252.00
2019-01-12T17:49:33.813Z,100251.00
2019-01-12T17:52:01.965Z,100252.00
2019-01-12T17:54:30.268Z,100236.00
2019-01-12T17:56:58.681Z,100222.00
2019-01-12T17:59:40.829Z,100223.00
2019-01-12T18:02:09.334Z,100227.00
2019-01-12T18:04:37.488Z,100226.00
2019-01-12T18:07:05.798Z,100217.00
2019-01-12T18:09:34.052Z,100231.00
2019-01-12T18:12:02.232Z,100215.00
2019-01-12T18:14:30.315Z,100215.00
2019-01-12T18:17:18.336Z,100215.00
2019-01-12T18:19:46.313Z,100214.00
2019-01-12T18:22:14.388Z,100205.00
2019-01-12T18:24:42.849Z,100199.00
2019-01-12T18:27:11.135Z,100184.00
2019-01-12T18:29:51.771Z,100195.00
2019-01-12T18:32:32.548Z,100023.00
2019-01-12T18:35:13.466Z,99987.00
2019-01-12T18:37:41.646Z,100196.00
2019-01-12T18:40:25.555Z,100051.00
2019-01-12T18:42:54.596Z,100195.00
2019-01-12T18:45:22.785Z,100189.00
2019-01-12T18:48:10.485Z,100183.00
2019-01-12T18:50:50.949Z,100117.00
2019-01-12T18:53:38.499Z,100179.00
2019-01-12T18:56:19.694Z,100184.00
2019-01-12T19:02:17.172Z,100182.00
2019-01-12T19:04:45.288Z,100175.00
2019-01-12T19:07:33.228Z,100283.00
2019-01-12T19:10:13.730Z,99989.00
2019-01-12T19:13:01.497Z,99933.00
2019-01-12T19:15:41.974Z,100086.00
2019-01-12T19:18:10.214Z,100173.00
2019-01-12T19:20:55.099Z,99951.00
2019-01-12T19:23:42.717Z,100164.00
2019-01-12T19:26:23.993Z,100170.00
2019-01-12T19:29:11.469Z,100174.00
2019-01-12T19:31:52.269Z,99916.00
2019-01-12T19:34:39.812Z,100172.00
2019-01-12T19:37:20.891Z,100180.00
2019-01-12T19:40:13.633Z,100180.00
2019-01-12T19:42:55.323Z,100260.00
2019-01-12T19:45:23.602Z,100181.00
2019-01-12T19:47:52.375Z,100187.00
2019-01-12T19:50:40.735Z,100228.00
2019-01-12T19:53:28.451Z,100187.00
2019-01-12T19:56:09.440Z,100070.00
2019-01-12T19:58:57.109Z,100024.00
2019-01-12T20:01:37.819Z,100177.00
2019-01-12T20:04:18.355Z,100156.00
2019-01-12T20:06:46.488Z,100164.00
2019-01-12T20:09:14.684Z,100151.00
2019-01-12T20:11:42.854Z,100155.00
2019-01-12T20:14:11.011Z,100141.00
2019-01-12T20:16:39.301Z,100151.00
2019-01-12T20:19:07.528Z,100133.00
2019-01-12T20:21:36.831Z,100140.00
2019-01-12T20:24:05.431Z,100136.00
2019-01-12T20:26:33.709Z,100120.00
2019-01-12T20:29:02.001Z,100118.00
2019-01-12T20:32:09.400Z,100121.00
2019-01-12T20:35:12.596Z,100116.00
2019-01-12T20:38:57.025Z,100124.00
2019-01-12T20:42:01.893Z,100115.00
2019-01-12T20:48:13.118Z,100107.00
2019-01-12T20:51:04.998Z,100110.00
2019-01-12T20:54:34.958Z,100106.00
2019-01-12T20:57:48.494Z,100109.00
2019-01-12T21:00:56.424Z,100096.00
2019-01-12T21:03:56.206Z,99928.00
2019-01-12T21:07:16.915Z,100098.00
2019-01-12T21:10:07.129Z,99956.00
2019-01-12T21:13:33.808Z,100100.00
2019-01-12T21:16:16.681Z,99911.00
2019-01-12T21:18:44.828Z,100111.00
2019-01-12T21:21:13.007Z,100100.00
2019-01-12T21:23:41.494Z,100114.00
2019-01-12T21:26:09.608Z,100124.00
2019-01-12T21:28:57.428Z,100110.00
2019-01-12T21:31:45.036Z,100180.00
2019-01-12T21:34:25.703Z,100111.00
2019-01-12T21:37:13.325Z,100080.00
2019-01-12T21:39:53.983Z,100102.00
2019-01-12T21:42:41.615Z,100094.00
2019-01-12T21:45:12.358Z,100104.00
2019-01-12T21:48:00.133Z,100121.00
2019-01-12T21:50:28.250Z,100098.00
2019-01-12T21:52:56.364Z,100097.00
2019-01-12T21:55:36.863Z,99930.00
2019-01-12T21:58:24.646Z,100087.00
2019-01-12T22:00:52.929Z,100086.00
2019-01-12T22:03:21.206Z,100077.00
2019-01-12T22:05:49.529Z,100080.00
2019-01-12T22:08:17.772Z,100082.00
2019-01-12T22:10:46.017Z,100076.00
2019-01-12T22:13:14.209Z,100081.00
2019-01-12T22:15:42.296Z,100078.00
2019-01-12T22:18:26.760Z,100069.00
2019-01-12T22:21:14.457Z,99872.00
2019-01-12T22:23:56.279Z,99846.00
2019-01-12T22:26:36.398Z,100065.00
2019-01-12T22:29:17.500Z,99857.00
2019-01-12T22:32:05.124Z,100069.00
2019-01-12T22:34:45.589Z,99971.00
2019-01-12T22:37:27.248Z,99833.00
2019-01-12T22:39:55.575Z,100059.00
2019-01-12T22:42:23.653Z,100065.00
2019-01-12T22:44:51.818Z,100052.00
2019-01-12T22:47:21.817Z,100048.00
2019-01-12T22:49:49.880Z,100054.00
2019-01-12T22:52:18.009Z,100056.00
2019-01-12T22:54:46.406Z,100061.00
2019-01-12T22:57:14.436Z,100047.00
2019-01-12T22:59:42.982Z,100042.00
2019-01-12T23:02:11.067Z,100044.00
2019-01-12T23:04:53.495Z,99976.00
2019-01-12T23:07:41.522Z,99939.00
2019-01-12T23:10:22.784Z,99805.00
2019-01-12T23:13:03.814Z,100050.00
2019-01-12T23:15:51.437Z,99971.00
2019-01-12T23:18:32.020Z,100053.00
2019-01-12T23:21:19.702Z,100057.00
2019-01-12T23:24:00.674Z,100046.00
2019-01-12T23:26:41.973Z,100049.00
2019-01-12T23:29:22.401Z,99996.00
2019-01-12T23:32:03.300Z,99891.00
2019-01-12T23:34:51.075Z,100133.00
2019-01-12T23:37:19.081Z,100050.00
2019-01-12T23:40:06.779Z,100067.00
2019-01-12T23:42:47.689Z,100016.00
2019-01-12T23:45:27.984Z,99875.00
2019-01-12T23:48:08.159Z,99845.00
2019-01-12T23:50:56.154Z,100031.00
2019-01-12T23:53:36.630Z,100036.00
2019-01-12T23:56:24.109Z,100087.00
2019-01-12T23:59:04.925Z,100048.00
